Nearby METAR Reports

 

EDNY - Friedrichshafen, Germany
Distance from station: ONO 32km
aktuell: 27/01/2022 11:20
Mist, geschlossene Wolkendecke
Mist, geschlossene Wolkendecke
 Wind von S
Wind: S 7 km/h
Temperatur: -2°C
gefühlte Temperatur: -6°C
Taupunkt: -2°C
Luftfeuchte: 100%
Luftdruck: 1029 hPa
Zusammenfassung: Mist
Clouds: geschlossene Wolkendecke
Visibility: 5 km
Cloud details: geschlossene Wolkendecke 91 m
2022/01/27 10:20 EDNY 271020Z 17004KT 5000 BR OVC003 M02/M02 Q1029
LSZR - Rheineck/Altenrh, Switzerland
Distance from station: OSO 37km
aktuell: 27/01/2022 11:20
Mist, geschlossene Wolkendecke
Mist, geschlossene Wolkendecke
 Wind von varies
Wind: varies 2 km/h
Temperatur: -2°C
Taupunkt: -2°C
Luftfeuchte: 100%
Luftdruck: 1030 hPa
Zusammenfassung: Mist
Clouds: geschlossene Wolkendecke
Visibility: 2 km
Cloud details: geschlossene Wolkendecke 61 m
2022/01/27 10:20 LSZR 271020Z VRB01KT 2000 BR OVC002 M02/M02 Q1030 NOSIG RMK F
LSMD - Dubendorf, Switzerland
Distance from station: SW 40km
aktuell: 27/01/2022 11:20
Mist, geschlossene Wolkendecke
Mist, geschlossene Wolkendecke
 Wind von SO
Wind: SO 6 km/h
Temperatur: -3°C
Taupunkt: -3°C
Luftfeuchte: 100%
Luftdruck: 1030 hPa
Zusammenfassung: Mist
Clouds: geschlossene Wolkendecke
Visibility: 3 km
Cloud details: geschlossene Wolkendecke 61 m
2022/01/27 10:20 LSMD 271020Z 13003KT 050V170 3100 R11/1600U R29/1400N BR OVC002 M03/M03 Q1030 RMK AMB
 
LSZH - Zurich-Kloten (a, Switzerland
Distance from station: WSW 44km
aktuell: 27/01/2022 11:20
Few Clouds
Few Clouds
 Wind von SSW
Wind: SSW 11 km/h
Temperatur: 0°C
gefühlte Temperatur: -4°C
Taupunkt: -3°C
Luftfeuchte: 80%
Luftdruck: 1030 hPa
Clouds: Few Clouds
Visibility: 6 km
Cloud details: Few Clouds 183 m
2022/01/27 10:20 LSZH 271020Z 20006KT 150V220 6000 FEW006 M00/M03 Q1030 NOSIG
LSME - Emmen, Switzerland
Distance from station: SW 82km
aktuell: 27/01/2022 11:20
teilweise bewölkt
teilweise bewölkt
 Wind von varies
Wind: varies 2 km/h
Temperatur: -2°C
Taupunkt: -2°C
Luftfeuchte: 100%
Luftdruck: 1031 hPa
Clouds: teilweise bewölkt
Visibility: 10 km
Cloud details: teilweise bewölkt 183 m
2022/01/27 10:20 LSME 271020Z VRB01KT 9999 SCT006 M02/M02 Q1031 RMK BLU+
LSZC - Buochs, Switzerland
Distance from station: SW 89km
aktuell: 27/01/2022 11:20
Freezing fog, geschlossene Wolkendecke
Freezing fog, geschlossene Wolkendecke
 Wind von varies
Wind: varies 4 km/h
Temperatur: -1°C
Taupunkt: -2°C
Luftfeuchte: 93%
Luftdruck: 1031 hPa
Zusammenfassung: Freezing Fog
Clouds: geschlossene Wolkendecke
Visibility: 1 km
Cloud details: geschlossene Wolkendecke 61 m
2022/01/27 10:20 LSZC 271020Z VRB02KT 0550 FZFG VV002 M01/M02 Q1031
 
ETHL - Laupheim (ger-Ar, Germany
Distance from station: NO 92km
aktuell: 27/01/2022 11:20
stark bewölkt
stark bewölkt
 Wind von WSW
Wind: WSW 11 km/h
Temperatur: 1°C
gefühlte Temperatur: -2°C
Taupunkt: -3°C
Luftfeuchte: 75%
Luftdruck: 1027 hPa
Clouds: stark bewölkt
Visibility: 10 km
Cloud details: stark bewölkt 7925 m
2022/01/27 10:20 ETHL 271020Z 25006KT 9999 BKN260 01/M03 Q1027 BLU+BLU+
EDJA - Memmingen Allgau, Germany
Distance from station: ONO 95km
aktuell: 27/01/2022 11:20
klar
klar
 Wind von SW
Wind: SW 26 km/h
Temperatur: 2°C
gefühlte Temperatur: -3°C
Taupunkt: -3°C
Luftfeuchte: 70%
Luftdruck: 1027 hPa
Zusammenfassung: klar
Visibility: greater than 10 km
2022/01/27 10:20 EDJA 271020Z 22014KT CAVOK 02/M03 Q1027
LSMA - Alpnach, Switzerland
Distance from station: SW 95km
aktuell: 27/01/2022 11:20
Fog, geschlossene Wolkendecke
Fog, geschlossene Wolkendecke
 Wind von calm
Wind: Windstill
Temperatur: -3°C
Taupunkt: -4°C
Luftfeuchte: 93%
Luftdruck: 1031 hPa
Zusammenfassung: Fog
Clouds: geschlossene Wolkendecke
Visibility: 0 km
Cloud details: geschlossene Wolkendecke 30 m
2022/01/27 10:20 LSMA 271020Z 00000KT 0450 R01/0700VP2000U R19/0650N FG VV001 M03/M04 Q1031 RMK RED